createdAt,value
2022-08-31T00:01:40.465Z,19862.63
2022-08-31T00:04:10.931Z,19895.13
2022-08-31T00:06:39.206Z,19891.06
2022-08-31T00:09:08.719Z,19868.72
2022-08-31T00:11:38.212Z,19836.19
2022-08-31T00:14:13.149Z,19834.16
2022-08-31T00:16:46.829Z,19850.41
2022-08-31T00:19:16.150Z,19850.41
2022-08-31T00:21:44.779Z,19858.56
2022-08-31T00:24:14.323Z,19858.56
2022-08-31T00:26:43.950Z,19878.88
2022-08-31T00:29:13.173Z,19848.38
2022-08-31T00:31:42.139Z,19854.50
2022-08-31T00:34:10.382Z,19874.81
2022-08-31T00:36:38.686Z,19844.31
2022-08-31T00:39:07.448Z,19862.63
2022-08-31T00:41:39.296Z,19848.38
2022-08-31T00:44:11.362Z,19813.84
2022-08-31T00:46:43.758Z,19813.84
2022-08-31T00:49:16.755Z,19821.97
2022-08-31T00:51:50.755Z,19817.91
2022-08-31T00:54:24.580Z,19811.81
2022-08-31T00:56:53.140Z,19862.63
2022-08-31T00:59:23.529Z,19821.97
2022-08-31T01:01:52.044Z,19868.72
2022-08-31T01:04:20.408Z,19828.06
2022-08-31T01:06:50.016Z,19858.56
2022-08-31T01:09:20.349Z,19870.75
2022-08-31T01:11:48.742Z,19887.00
2022-08-31T01:14:16.964Z,19809.78
2022-08-31T01:16:52.429Z,19819.94
2022-08-31T01:19:34.640Z,19809.78
2022-08-31T01:22:15.211Z,19801.66
2022-08-31T01:24:48.622Z,19828.06
2022-08-31T01:27:26.078Z,19781.31
2022-08-31T01:29:54.327Z,19797.59
2022-08-31T01:32:22.459Z,19838.22
2022-08-31T01:34:50.584Z,19754.91
2022-08-31T01:37:18.905Z,19777.25
2022-08-31T01:39:54.767Z,19854.50
2022-08-31T01:42:22.868Z,19813.84
2022-08-31T01:45:01.282Z,19805.72
2022-08-31T01:47:29.523Z,19754.91
2022-08-31T01:49:57.833Z,19758.97
2022-08-31T01:52:28.110Z,19769.13
2022-08-31T01:54:57.707Z,19769.13
2022-08-31T01:57:33.717Z,19767.09
2022-08-31T02:00:06.076Z,19738.66
2022-08-31T02:02:34.596Z,19738.66
2022-08-31T02:05:02.761Z,19793.50
2022-08-31T02:07:30.928Z,19740.69
2022-08-31T02:10:00.443Z,19716.28
2022-08-31T02:12:28.633Z,19712.22
2022-08-31T02:14:56.716Z,19712.22
2022-08-31T02:17:24.780Z,19698.00
2022-08-31T02:19:52.901Z,19639.06
2022-08-31T02:22:21.004Z,19677.66
2022-08-31T02:24:49.172Z,19669.53
2022-08-31T02:27:18.620Z,19691.91
2022-08-31T02:29:46.760Z,19667.50
2022-08-31T02:32:20.043Z,19643.13
2022-08-31T02:34:49.191Z,19659.38
2022-08-31T02:37:17.704Z,19614.66
2022-08-31T02:39:48.704Z,19687.84
2022-08-31T02:42:19.661Z,19645.16
2022-08-31T02:44:47.792Z,19643.13
2022-08-31T02:47:15.899Z,19639.06
2022-08-31T02:49:43.980Z,19614.66
2022-08-31T02:52:12.065Z,19596.38
2022-08-31T02:54:40.201Z,19602.47
2022-08-31T02:57:08.344Z,19620.78
2022-08-31T02:59:37.840Z,19592.31
2022-08-31T03:02:06.212Z,19614.66
2022-08-31T03:04:34.445Z,19610.59
2022-08-31T03:07:03.143Z,19606.53
2022-08-31T03:09:32.631Z,19582.16
2022-08-31T03:12:00.908Z,19578.09
2022-08-31T03:14:29.121Z,19555.75
2022-08-31T03:16:58.543Z,19661.41
2022-08-31T03:19:29.697Z,19582.16
2022-08-31T03:21:57.761Z,19635.00
2022-08-31T03:24:27.522Z,19590.28
2022-08-31T03:26:56.154Z,19537.44
2022-08-31T03:29:24.275Z,19582.16
2022-08-31T03:31:52.542Z,19565.91
2022-08-31T03:34:21.942Z,19563.88
2022-08-31T03:36:50.149Z,19521.19
2022-08-31T03:39:18.338Z,19578.09
2022-08-31T03:41:46.465Z,19547.59
2022-08-31T03:44:14.560Z,19574.03
2022-08-31T03:46:44.376Z,19594.34
2022-08-31T03:49:13.846Z,19547.59
2022-08-31T03:51:43.255Z,19553.72
2022-08-31T03:54:11.524Z,19539.47
2022-08-31T03:56:40.391Z,19598.41
2022-08-31T03:59:08.989Z,19517.13
2022-08-31T04:01:38.369Z,19588.25
2022-08-31T04:04:07.742Z,19500.88
2022-08-31T04:06:36.188Z,19547.59
2022-08-31T04:09:05.752Z,19492.75
2022-08-31T04:11:45.127Z,19506.97
2022-08-31T04:14:15.495Z,19539.47
2022-08-31T04:16:44.257Z,19500.88
2022-08-31T04:19:15.916Z,19504.94
2022-08-31T04:21:45.290Z,19488.69
2022-08-31T04:24:14.907Z,19462.25
2022-08-31T04:26:43.215Z,19537.44
2022-08-31T04:29:13.568Z,19500.88
2022-08-31T04:31:42.016Z,19537.44
2022-08-31T04:34:10.153Z,19500.88
2022-08-31T04:36:39.232Z,19498.84
2022-08-31T04:39:08.932Z,19515.09
2022-08-31T04:41:40.773Z,19517.13
2022-08-31T04:44:11.840Z,19525.25
2022-08-31T04:46:42.303Z,19574.03
2022-08-31T04:49:14.545Z,19563.88
2022-08-31T04:51:43.288Z,19553.72
2022-08-31T04:54:14.900Z,19537.44
2022-08-31T04:56:46.408Z,19553.72
2022-08-31T04:59:18.062Z,19563.88
2022-08-31T05:01:47.189Z,19643.13
2022-08-31T05:04:17.131Z,19598.41
2022-08-31T05:06:47.725Z,19541.50
2022-08-31T05:09:20.146Z,19594.34
2022-08-31T05:11:51.225Z,19608.56
2022-08-31T05:14:19.541Z,19628.91
2022-08-31T05:16:47.759Z,19624.84
2022-08-31T05:19:15.973Z,19681.75
2022-08-31T05:21:45.512Z,19663.44
2022-08-31T05:24:16.404Z,19667.50
2022-08-31T05:26:49.088Z,19655.31
2022-08-31T05:29:21.604Z,19702.06
2022-08-31T05:31:52.455Z,19738.66
2022-08-31T05:34:22.210Z,19693.94
2022-08-31T05:36:55.365Z,19712.22
2022-08-31T05:39:24.378Z,19728.47
2022-08-31T05:41:53.123Z,19667.50
2022-08-31T05:44:23.643Z,19661.41
2022-08-31T05:46:57.667Z,19700.03
2022-08-31T05:49:32.638Z,19698.00
2022-08-31T05:52:01.374Z,19712.22
2022-08-31T05:54:30.077Z,19738.66
2022-08-31T05:57:01.197Z,19667.50
2022-08-31T05:59:32.374Z,19712.22
2022-08-31T06:02:01.823Z,19791.47
2022-08-31T06:04:30.406Z,19799.63
2022-08-31T06:06:58.473Z,19842.28
2022-08-31T06:09:27.133Z,19815.88
2022-08-31T06:11:55.301Z,19801.66
2022-08-31T06:14:23.774Z,19765.06
2022-08-31T06:16:56.551Z,19828.06
2022-08-31T06:19:24.650Z,19828.06
2022-08-31T06:21:52.781Z,19860.59
2022-08-31T06:24:21.255Z,19850.41
2022-08-31T06:26:57.903Z,19901.22
2022-08-31T06:29:31.354Z,19891.06
2022-08-31T06:32:07.782Z,19895.13
2022-08-31T06:34:36.273Z,19891.06
2022-08-31T06:37:05.418Z,19952.03
2022-08-31T06:39:33.567Z,19943.91
2022-08-31T06:42:01.738Z,19903.25
2022-08-31T06:44:30.331Z,19996.75
2022-08-31T06:46:59.913Z,19964.25
2022-08-31T06:49:28.020Z,20045.53
2022-08-31T06:51:58.025Z,20063.81
2022-08-31T06:54:30.368Z,20069.94
2022-08-31T06:56:59.978Z,20086.19
2022-08-31T06:59:29.753Z,20090.25
2022-08-31T07:02:01.288Z,20074.00
2022-08-31T07:04:34.623Z,20118.69
2022-08-31T07:07:04.060Z,20141.06
2022-08-31T07:09:32.203Z,20187.81
2022-08-31T07:12:00.400Z,20171.56
2022-08-31T07:14:29.213Z,20187.81
2022-08-31T07:17:03.047Z,20155.28
2022-08-31T07:19:32.249Z,20157.31
2022-08-31T07:22:02.826Z,20169.53
2022-08-31T07:24:35.180Z,20179.69
2022-08-31T07:27:09.932Z,20195.94
2022-08-31T07:29:41.185Z,20334.16
2022-08-31T07:32:13.003Z,20309.75
2022-08-31T07:34:42.006Z,20370.75
2022-08-31T07:37:27.528Z,20413.44
2022-08-31T07:40:13.707Z,20474.41
2022-08-31T07:42:46.708Z,20476.44
2022-08-31T07:45:23.098Z,20527.25
2022-08-31T07:47:55.226Z,20622.81
2022-08-31T07:50:26.884Z,20659.38
2022-08-31T07:52:58.404Z,20754.94
2022-08-31T07:55:29.229Z,20775.25
2022-08-31T07:57:58.127Z,20801.69
2022-08-31T08:00:33.042Z,20820.00
2022-08-31T08:03:17.401Z,20832.19
2022-08-31T08:05:45.561Z,20801.69
2022-08-31T08:08:15.774Z,20730.53
2022-08-31T08:10:52.347Z,20708.19
2022-08-31T08:13:23.193Z,20720.38
2022-08-31T08:15:52.310Z,20761.03
2022-08-31T08:18:22.795Z,20809.81
2022-08-31T08:20:52.476Z,20852.50
2022-08-31T08:23:25.889Z,20893.16
2022-08-31T08:25:57.750Z,20895.19
2022-08-31T08:28:39.180Z,20907.41
2022-08-31T08:31:14.209Z,20917.56
2022-08-31T08:33:45.112Z,20876.91
2022-08-31T08:36:18.299Z,20903.34
2022-08-31T08:38:50.499Z,20876.91
2022-08-31T08:41:22.625Z,20856.56
2022-08-31T08:43:57.444Z,20838.28
2022-08-31T08:46:35.470Z,20805.75
2022-08-31T08:49:19.936Z,20876.91
2022-08-31T08:51:54.396Z,20832.19
2022-08-31T08:54:31.374Z,20891.13
2022-08-31T08:57:01.820Z,20939.94
2022-08-31T08:59:30.546Z,21007.00
2022-08-31T09:02:07.022Z,20952.13
2022-08-31T09:05:35.166Z,20988.72
2022-08-31T09:08:31.129Z,21098.50
2022-08-31T09:11:17.689Z,21118.84
2022-08-31T09:14:06.393Z,21151.34
2022-08-31T09:16:44.686Z,21179.81
2022-08-31T09:19:17.128Z,21230.66
2022-08-31T09:21:54.827Z,21230.66
2022-08-31T09:24:27.424Z,21214.38
2022-08-31T09:27:18.004Z,21198.13
2022-08-31T09:29:53.659Z,21285.53
2022-08-31T09:32:26.571Z,21322.13
2022-08-31T09:35:01.487Z,21255.03
2022-08-31T09:37:46.175Z,21253.00
2022-08-31T09:40:23.811Z,21281.47
2022-08-31T09:43:06.830Z,21206.25
2022-08-31T09:45:41.225Z,21234.72
2022-08-31T09:48:10.895Z,21273.34
2022-08-31T09:50:45.122Z,21273.34
2022-08-31T09:53:38.875Z,21246.91
2022-08-31T09:56:15.490Z,21293.69
2022-08-31T09:58:47.685Z,21255.03
2022-08-31T10:01:23.175Z,21297.75
2022-08-31T10:03:54.082Z,21314.00
2022-08-31T10:06:47.173Z,21334.34
2022-08-31T10:09:37.173Z,21336.38
2022-08-31T10:12:12.530Z,21283.50
2022-08-31T10:14:51.868Z,21340.44
2022-08-31T10:17:31.941Z,21370.94
2022-08-31T10:20:08.917Z,21344.50
2022-08-31T10:22:42.800Z,21340.44
2022-08-31T10:25:29.109Z,21255.03
2022-08-31T10:28:08.389Z,21391.28
2022-08-31T10:30:48.224Z,21364.84
2022-08-31T10:33:22.748Z,21403.47
2022-08-31T10:35:55.737Z,21415.66
2022-08-31T10:38:37.679Z,21499.03
2022-08-31T10:41:19.528Z,21442.09
2022-08-31T10:43:59.247Z,21484.78
2022-08-31T10:46:29.087Z,21531.56
2022-08-31T10:48:59.416Z,21574.25
2022-08-31T10:51:41.593Z,21586.47
2022-08-31T10:54:30.968Z,21627.13
2022-08-31T10:57:21.571Z,21686.09
2022-08-31T11:00:02.860Z,21651.53
2022-08-31T11:02:52.919Z,21686.09
2022-08-31T11:05:35.246Z,21677.97
2022-08-31T11:08:37.848Z,21680.00
2022-08-31T11:11:13.009Z,21688.13
2022-08-31T11:14:21.779Z,21751.16
2022-08-31T11:17:18.854Z,21765.38
2022-08-31T11:20:18.026Z,21659.66
2022-08-31T11:23:20.031Z,21844.69
2022-08-31T11:26:39.012Z,21883.31
2022-08-31T11:29:27.007Z,21869.09
2022-08-31T11:32:01.268Z,21869.09
2022-08-31T11:34:46.992Z,21907.72
2022-08-31T11:37:54.210Z,22052.09
2022-08-31T11:41:05.697Z,22145.66
2022-08-31T11:43:53.691Z,22184.28
2022-08-31T11:47:05.123Z,22176.16
2022-08-31T11:49:47.540Z,22220.91
2022-08-31T11:52:43.127Z,22318.50
2022-08-31T11:55:28.490Z,22328.69
2022-08-31T11:58:34.529Z,22218.84
2022-08-31T12:01:09.460Z,22186.31
2022-08-31T12:03:45.788Z,22180.22
2022-08-31T12:07:08.717Z,22094.81
2022-08-31T12:10:27.891Z,22005.34
2022-08-31T12:13:30.949Z,21913.84
2022-08-31T12:16:41.897Z,21860.97
2022-08-31T12:20:02.894Z,21802.00
2022-08-31T12:23:35.804Z,21844.69
2022-08-31T12:26:32.505Z,21848.75
2022-08-31T12:29:21.003Z,21832.50
2022-08-31T12:32:11.184Z,21860.97
2022-08-31T12:34:48.605Z,21885.38
2022-08-31T12:37:27.348Z,21928.06
2022-08-31T12:40:20.252Z,21909.75
2022-08-31T12:43:01.779Z,21840.63
2022-08-31T12:46:13.322Z,21795.88
2022-08-31T12:49:21.616Z,21834.53
2022-08-31T12:51:57.981Z,21789.78
2022-08-31T12:55:09.931Z,21810.13
2022-08-31T12:57:59.928Z,21738.97
2022-08-31T13:00:31.190Z,21769.47
2022-08-31T13:03:06.890Z,21822.31
2022-08-31T13:05:39.194Z,21802.00
2022-08-31T13:08:22.750Z,21840.63
2022-08-31T13:10:51.468Z,21848.75
2022-08-31T13:13:28.423Z,21889.44
2022-08-31T13:16:04.461Z,21901.63
2022-08-31T13:18:32.794Z,21863.00
2022-08-31T13:21:05.678Z,21867.06
2022-08-31T13:23:39.047Z,21883.31
2022-08-31T13:26:20.524Z,21875.19
2022-08-31T13:28:53.717Z,21871.13
2022-08-31T13:31:25.854Z,21891.47
2022-08-31T13:33:56.849Z,21879.25
2022-08-31T13:36:33.218Z,21895.53
2022-08-31T13:39:11.525Z,21875.19
2022-08-31T13:41:57.093Z,21873.16
2022-08-31T13:44:37.933Z,21863.00
2022-08-31T13:47:16.481Z,21913.84
2022-08-31T13:49:46.014Z,21901.63
2022-08-31T13:52:27.226Z,21919.94
2022-08-31T13:55:05.952Z,21942.31
2022-08-31T13:57:38.298Z,21938.22
2022-08-31T14:00:41.296Z,21944.34
2022-08-31T14:03:33.785Z,21881.28
2022-08-31T14:06:24.806Z,21863.00
2022-08-31T14:09:00.173Z,21810.13
2022-08-31T14:11:30.212Z,21822.31
2022-08-31T14:14:07.393Z,21812.16
2022-08-31T14:16:45.209Z,21844.69
2022-08-31T14:19:31.671Z,21842.66
2022-08-31T14:22:17.991Z,21822.31
2022-08-31T14:24:46.001Z,21848.75
2022-08-31T14:27:17.249Z,21830.47
2022-08-31T14:29:45.279Z,21871.13
2022-08-31T14:32:14.415Z,21887.41
2022-08-31T14:34:47.155Z,21899.59
2022-08-31T14:37:19.884Z,21938.22
2022-08-31T14:39:51.452Z,21950.44
2022-08-31T14:42:25.781Z,21982.97
2022-08-31T14:44:59.848Z,21952.47
2022-08-31T14:47:31.485Z,21964.66
2022-08-31T14:50:05.568Z,21985.00
2022-08-31T14:52:34.595Z,22031.78
2022-08-31T14:55:02.876Z,21960.59
2022-08-31T14:57:34.647Z,21952.47
2022-08-31T15:00:06.842Z,21958.56
2022-08-31T15:02:36.526Z,21901.63
2022-08-31T15:05:08.901Z,21863.00
2022-08-31T15:07:40.315Z,21816.22
2022-08-31T15:10:12.823Z,21769.47
2022-08-31T15:12:42.399Z,21747.09
2022-08-31T15:15:11.918Z,21730.81
2022-08-31T15:17:40.438Z,21692.19
2022-08-31T15:20:11.326Z,21690.16
2022-08-31T15:22:40.460Z,21736.94
2022-08-31T15:25:11.902Z,21712.53
2022-08-31T15:27:44.375Z,21627.13
2022-08-31T15:30:18.806Z,21669.81
2022-08-31T15:32:48.862Z,21682.03
2022-08-31T15:35:23.431Z,21659.66
2022-08-31T15:37:58.612Z,21700.31
2022-08-31T15:40:29.553Z,21751.16
2022-08-31T15:43:01.883Z,21688.13
2022-08-31T15:45:31.250Z,21773.53
2022-08-31T15:48:17.301Z,21680.00
2022-08-31T15:50:52.473Z,21677.97
2022-08-31T15:53:27.317Z,21673.88
2022-08-31T15:55:55.406Z,21655.59
2022-08-31T15:58:26.051Z,21675.94
2022-08-31T16:00:54.328Z,21669.81
2022-08-31T16:03:22.427Z,21688.13
2022-08-31T16:05:50.471Z,21659.66
2022-08-31T16:08:19.252Z,21643.38
2022-08-31T16:10:48.878Z,21602.72
2022-08-31T16:13:17.646Z,21647.47
2022-08-31T16:15:53.108Z,21598.66
2022-08-31T16:18:25.246Z,21543.75
2022-08-31T16:20:53.373Z,21551.91
2022-08-31T16:23:22.077Z,21525.47
2022-08-31T16:25:50.305Z,21535.63
2022-08-31T16:28:20.156Z,21566.13
2022-08-31T16:30:51.715Z,21553.94
2022-08-31T16:33:20.819Z,21492.94
2022-08-31T16:35:49.124Z,21519.34
2022-08-31T16:38:17.311Z,21472.59
2022-08-31T16:40:45.711Z,21503.09
2022-08-31T16:43:13.934Z,21458.38
2022-08-31T16:45:42.834Z,21425.84
2022-08-31T16:48:30.356Z,21462.44
2022-08-31T16:51:02.056Z,21452.25
2022-08-31T16:53:31.160Z,21466.50
2022-08-31T16:55:59.793Z,21452.25
2022-08-31T16:58:50.742Z,21472.59
2022-08-31T17:01:23.558Z,21440.06
2022-08-31T17:03:57.503Z,21480.72
2022-08-31T17:06:28.363Z,21403.47
2022-08-31T17:09:00.197Z,21399.41
2022-08-31T17:11:32.033Z,21330.28
2022-08-31T17:14:02.576Z,21338.41
2022-08-31T17:16:34.622Z,21293.69
2022-08-31T17:19:10.647Z,21318.06
2022-08-31T17:21:48.913Z,21248.94
2022-08-31T17:24:23.456Z,21285.53
2022-08-31T17:26:53.889Z,21230.66
2022-08-31T17:29:23.555Z,21242.84
2022-08-31T17:31:53.185Z,21228.63
2022-08-31T17:34:28.241Z,21196.09
2022-08-31T17:37:00.218Z,21196.09
2022-08-31T17:39:30.234Z,21230.66
2022-08-31T17:41:59.121Z,21224.56
2022-08-31T17:44:30.953Z,21192.03
2022-08-31T17:47:01.564Z,21210.31
2022-08-31T17:49:36.468Z,21135.09
2022-08-31T17:52:08.294Z,21171.69
2022-08-31T17:54:40.135Z,21112.72
2022-08-31T17:57:12.070Z,21094.44
2022-08-31T17:59:44.070Z,21135.09
2022-08-31T18:02:16.586Z,21063.94
2022-08-31T18:04:46.381Z,21116.78
2022-08-31T18:07:15.273Z,21059.88
2022-08-31T18:09:46.778Z,21090.38
2022-08-31T18:12:16.657Z,21049.72
2022-08-31T18:14:45.384Z,21072.06
2022-08-31T18:17:16.254Z,21088.34
2022-08-31T18:19:46.610Z,21104.59
2022-08-31T18:22:16.654Z,21045.63
2022-08-31T18:24:44.862Z,21092.41
2022-08-31T18:27:15.550Z,21053.78
2022-08-31T18:29:45.332Z,21037.50
2022-08-31T18:32:15.350Z,20988.72
2022-08-31T18:34:47.154Z,21082.25
2022-08-31T18:37:21.918Z,21025.31
2022-08-31T18:40:08.455Z,20968.38
2022-08-31T18:42:56.936Z,20927.72
2022-08-31T18:45:25.883Z,20994.81
2022-08-31T18:50:49.324Z,20990.75
2022-08-31T18:53:28.653Z,21004.97
2022-08-31T18:55:59.327Z,20968.38
2022-08-31T18:58:28.689Z,20972.47
2022-08-31T19:00:58.768Z,20976.53
2022-08-31T19:03:28.314Z,20917.56
2022-08-31T19:05:58.037Z,20901.31
2022-08-31T19:08:26.890Z,20939.94
2022-08-31T19:10:57.919Z,20978.56
2022-08-31T19:13:29.797Z,21015.16
2022-08-31T19:16:02.165Z,20968.38
2022-08-31T19:18:34.115Z,20907.41
2022-08-31T19:21:18.526Z,20919.59
2022-08-31T19:23:47.932Z,20901.31
2022-08-31T19:26:22.333Z,20968.38
2022-08-31T19:28:51.179Z,20878.94
2022-08-31T19:31:20.971Z,20941.97
2022-08-31T19:33:56.060Z,20864.72
2022-08-31T19:36:27.128Z,20883.00
2022-08-31T19:38:55.986Z,20872.84
2022-08-31T19:41:26.778Z,20850.47
2022-08-31T19:44:05.602Z,20842.34
2022-08-31T19:46:36.767Z,20832.19
2022-08-31T19:49:10.844Z,20785.44
2022-08-31T19:51:42.430Z,20789.50
2022-08-31T19:54:12.455Z,20852.50
2022-08-31T19:56:43.588Z,20826.09
2022-08-31T19:59:18.213Z,20785.44
2022-08-31T20:01:48.340Z,20787.47
2022-08-31T20:04:18.985Z,20783.41
2022-08-31T20:06:52.351Z,20787.47
2022-08-31T20:09:22.419Z,20761.03
2022-08-31T20:11:51.631Z,20793.56
2022-08-31T20:14:21.446Z,20795.59
2022-08-31T20:16:51.299Z,20789.50
2022-08-31T20:19:24.767Z,20801.69
2022-08-31T20:21:59.291Z,20805.75
2022-08-31T20:24:28.736Z,20793.56
2022-08-31T20:27:01.706Z,20771.19
2022-08-31T20:29:38.678Z,20746.81
2022-08-31T20:32:07.974Z,20789.50
2022-08-31T20:34:38.136Z,20734.59
2022-08-31T20:37:07.789Z,20732.56
2022-08-31T20:39:37.252Z,20761.03
2022-08-31T20:42:07.033Z,20752.91
2022-08-31T20:44:38.352Z,20777.28
2022-08-31T20:47:26.961Z,20761.03
2022-08-31T20:49:58.045Z,20702.09
2022-08-31T20:52:31.780Z,20746.81
2022-08-31T20:55:02.904Z,20691.91
2022-08-31T20:57:33.333Z,20695.97
2022-08-31T21:00:02.792Z,20718.34
2022-08-31T21:02:33.198Z,20687.84
2022-08-31T21:05:26.805Z,20732.56
2022-08-31T21:07:53.210Z,20732.56
2022-08-31T21:10:36.189Z,20706.16
2022-08-31T21:13:09.207Z,20710.22
2022-08-31T21:15:42.761Z,20706.16
2022-08-31T21:18:11.744Z,20691.91
2022-08-31T21:20:39.907Z,20726.47
2022-08-31T21:23:10.460Z,20671.59
2022-08-31T21:25:43.662Z,20681.75
2022-08-31T21:28:13.620Z,20643.13
2022-08-31T21:30:41.801Z,20651.25
2022-08-31T21:33:09.870Z,20661.44
2022-08-31T21:35:37.933Z,20663.47
2022-08-31T21:38:07.426Z,20655.31
2022-08-31T21:40:37.035Z,20671.59
2022-08-31T21:43:05.392Z,20635.00
2022-08-31T21:45:33.532Z,20665.50
2022-08-31T21:48:02.038Z,20695.97
2022-08-31T21:50:30.254Z,20671.59
2022-08-31T21:53:00.378Z,20667.53
2022-08-31T21:55:28.894Z,20657.34
2022-08-31T21:57:59.232Z,20628.91
2022-08-31T22:00:29.579Z,20637.03
2022-08-31T22:02:58.482Z,20610.59
2022-08-31T22:05:31.627Z,20594.34
2022-08-31T22:07:59.687Z,20580.13
2022-08-31T22:10:29.994Z,20620.78
2022-08-31T22:12:59.470Z,20620.78
2022-08-31T22:15:28.229Z,20616.69
2022-08-31T22:18:15.502Z,20569.94
2022-08-31T22:20:45.809Z,20586.22
2022-08-31T22:23:14.320Z,20561.81
2022-08-31T22:25:42.408Z,20574.00
2022-08-31T22:28:12.923Z,20551.66
2022-08-31T22:30:41.171Z,20565.88
2022-08-31T22:33:09.279Z,20571.97
2022-08-31T22:35:40.087Z,20553.69
2022-08-31T22:38:09.015Z,20553.69
2022-08-31T22:40:39.529Z,20598.41
2022-08-31T22:43:10.996Z,20635.00
2022-08-31T22:45:48.091Z,20596.38
2022-08-31T22:48:17.146Z,20547.59
2022-08-31T22:50:45.405Z,20498.81
2022-08-31T22:53:14.259Z,20498.81
2022-08-31T22:55:43.531Z,20452.06
2022-08-31T22:58:13.713Z,20480.50
2022-08-31T23:00:48.015Z,20458.16
2022-08-31T23:03:16.328Z,20484.56
2022-08-31T23:05:45.263Z,20476.44
2022-08-31T23:08:14.817Z,20468.31
2022-08-31T23:10:44.370Z,20458.16
2022-08-31T23:13:13.861Z,20470.34
2022-08-31T23:15:43.452Z,20447.97
2022-08-31T23:18:13.443Z,20454.09
2022-08-31T23:20:41.751Z,20490.66
2022-08-31T23:23:10.957Z,20456.13
2022-08-31T23:25:41.046Z,20464.25
2022-08-31T23:28:09.433Z,20508.97
2022-08-31T23:30:40.156Z,20427.66
2022-08-31T23:33:08.311Z,20484.56
2022-08-31T23:35:36.447Z,20435.78
2022-08-31T23:38:04.549Z,20429.69
2022-08-31T23:40:34.263Z,20393.09
2022-08-31T23:43:02.487Z,20403.25
2022-08-31T23:45:31.988Z,20411.41
2022-08-31T23:48:01.420Z,20472.38
2022-08-31T23:50:29.566Z,20415.47
2022-08-31T23:52:57.626Z,20370.75
2022-08-31T23:55:31.009Z,20403.25
2022-08-31T23:57:59.339Z,20423.59
